^^
Saratoga-Weather Station Historical Data
Daily Summary for February 6, 2021 Units:  English    Metric   Both
Daily Weekly Monthly Yearly Custom
  High: Low: Average:
Temperature: 68.4 °F 58.8 °F 63.1 °F
Dew Point: 60.8 °F 56.5 °F 58.8 °F
Humidity: 97% 71% 87%
Wind Speed: 10.1mph 0mph 1.9mph
Wind Gust: 15mph - -
Wind- - WSW
Pressure: 29.7 in 29.6 in -
Precipitation: 0.2 in    
Historical Graphs
 
 
Tabular Data for February 6, 2021
Time Temperature Dew Point Pressure Wind Wind Speed Wind Gust Humidity Rainfall Rate (Hourly) solar
00:06 59.4 °F 58.3 °F 29.7 in Calm   1 mph 96% 0 in 0 W/m2
00:11 59.4 °F 58.3 °F 29.7 in Calm   1 mph 96% 0 in 0 W/m2
00:16 59.4 °F 58.3 °F 29.7 in Calm   1 mph 96% 0 in 0 W/m2
00:21 59.4 °F 58.3 °F 29.7 in WSW 0.9 mph 2 mph 96% 0 in 0 W/m2
00:26 59.4 °F 58.3 °F 29.7 in Calm     96% 0 in 0 W/m2
00:31 59.4 °F 58.3 °F 29.7 in Calm   2 mph 96% 0 in 0 W/m2
00:36 59.4 °F 58.3 °F 29.7 in Calm     96% 0 in 0 W/m2
00:41 59.4 °F 58.3 °F 29.7 in Calm     96% 0 in 0 W/m2
00:46 59.4 °F 58.3 °F 29.7 in Calm     96% 0 in 0 W/m2
01:04 59.5 °F 58.6 °F 29.7 in West 2.9 mph 7 mph 97% 0.01 in 0 W/m2
01:09 59.9 °F 58.8 °F 29.7 in NNW 2.9 mph 6 mph 96% 0.02 in 0 W/m2
01:14 60.1 °F 59 °F 29.7 in NW 2 mph 4 mph 96% 0.02 in 0 W/m2
01:32 60.1 °F 58.6 °F 29.7 in NE 0.9 mph 3 mph 95% 0.03 in 0 W/m2
01:37 60.1 °F 58.6 °F 29.7 in NNE 0.9 mph 3 mph 95% 0.03 in 0 W/m2
01:42 60.1 °F 58.6 °F 29.7 in NNE 0.9 mph 2 mph 95% 0.03 in 0 W/m2
01:47 60.1 °F 58.6 °F 29.7 in Calm   2 mph 95% 0.03 in 0 W/m2
01:52 60.1 °F 58.6 °F 29.7 in Calm     95% 0.03 in 0 W/m2
01:57 60.3 °F 58.8 °F 29.7 in ENE 0.9 mph 2 mph 95% 0.04 in 0 W/m2
02:02 60.1 °F 58.6 °F 29.7 in Calm   1 mph 95% 0.03 in 0 W/m2
02:07 60.3 °F 58.8 °F 29.7 in Calm   2 mph 95% 0.02 in 0 W/m2
02:12 60.3 °F 58.8 °F 29.7 in Calm   1 mph 95% 0.02 in 0 W/m2
02:17 60.1 °F 58.6 °F 29.7 in Calm     95% 0.02 in 0 W/m2
02:22 60.3 °F 58.8 °F 29.7 in Calm     95% 0.02 in 0 W/m2
02:27 60.3 °F 58.8 °F 29.7 in East 2.9 mph 3 mph 95% 0.02 in 0 W/m2
02:44 60.3 °F 58.8 °F 29.7 in Calm   2 mph 95% 0.01 in 0 W/m2
02:49 60.3 °F 58.8 °F 29.7 in NNE 0.9 mph 2 mph 95% 0.01 in 0 W/m2
02:54 60.3 °F 58.8 °F 29.7 in NE 0.9 mph 2 mph 95% 0.01 in 0 W/m2
02:59 60.3 °F 58.8 °F 29.7 in NE 0.9 mph 3 mph 95% 0 in 0 W/m2
03:04 60.3 °F 58.8 °F 29.7 in East 2 mph 4 mph 95% 0.01 in 0 W/m2
03:09 60.3 °F 58.8 °F 29.7 in Calm   3 mph 95% 0.01 in 0 W/m2
03:14 60.3 °F 58.8 °F 29.7 in Calm   2 mph 95% 0.01 in 0 W/m2
03:19 60.3 °F 58.8 °F 29.7 in Calm   2 mph 95% 0.02 in 0 W/m2
03:24 60.4 °F 59 °F 29.6 in NNW 0.9 mph 2 mph 95% 0.02 in 0 W/m2
03:29 60.4 °F 59 °F 29.7 in Calm   2 mph 95% 0.02 in 0 W/m2
03:34 60.4 °F 59 °F 29.6 in NE 0.9 mph 3 mph 95% 0.02 in 0 W/m2
03:39 60.4 °F 59 °F 29.6 in Calm   1 mph 95% 0.02 in 0 W/m2
03:44 60.4 °F 59 °F 29.6 in ENE 2 mph 4 mph 95% 0.02 in 0 W/m2
03:49 60.4 °F 59 °F 29.6 in SSE 0.9 mph 3 mph 95% 0.02 in 0 W/m2
03:54 60.6 °F 59.2 °F 29.6 in Calm   4 mph 95% 0.02 in 0 W/m2
03:59 60.6 °F 59.2 °F 29.6 in NE 0.9 mph 3 mph 95% 0.03 in 0 W/m2
04:04 60.8 °F 59.4 °F 29.6 in NE 2 mph 2 mph 95% 0.02 in 0 W/m2
04:09 60.8 °F 59.4 °F 29.6 in North 2 mph 3 mph 95% 0.02 in 0 W/m2
04:14 60.8 °F 59.4 °F 29.6 in West 2 mph 2 mph 95% 0.03 in 0 W/m2
04:19 60.8 °F 59.4 °F 29.6 in North 0.9 mph 3 mph 95% 0.04 in 0 W/m2
04:24 60.8 °F 59.4 °F 29.6 in Calm   3 mph 95% 0.05 in 0 W/m2
04:29 61 °F 59.5 °F 29.6 in Calm   3 mph 95% 0.05 in 0 W/m2
04:34 61 °F 59.5 °F 29.6 in SSE 2 mph 3 mph 95% 0.06 in 0 W/m2
04:39 61 °F 59.5 °F 29.6 in North 2 mph 3 mph 95% 0.06 in 0 W/m2
04:56 61.2 °F 59.7 °F 29.6 in NE 2 mph 3 mph 95% 0.06 in 0 W/m2
05:01 61.2 °F 59.7 °F 29.6 in NE 0.9 mph 2 mph 95% 0.04 in 0 W/m2
05:06 61.2 °F 59.7 °F 29.6 in WNW 0.9 mph 2 mph 95% 0.04 in 0 W/m2
05:11 61.2 °F 59.7 °F 29.6 in WNW 2 mph 4 mph 95% 0.04 in 0 W/m2
05:16 61.2 °F 59.7 °F 29.6 in SW 0.9 mph 3 mph 95% 0.02 in 0 W/m2
05:21 61.2 °F 59.7 °F 29.6 in NW 2 mph 3 mph 95% 0.02 in 0 W/m2
05:26 61.2 °F 59.7 °F 29.6 in NW 6.9 mph 8 mph 95% 0.02 in 0 W/m2
05:31 61.2 °F 59.7 °F 29.6 in NE 0.9 mph 2 mph 95% 0.01 in 0 W/m2
05:36 61.2 °F 59.4 °F 29.6 in NNE 2 mph 8 mph 94% 0.01 in 0 W/m2
05:41 61.2 °F 59.4 °F 29.6 in SW 4.9 mph 5 mph 94% 0.01 in 0 W/m2
05:46 61.2 °F 59.4 °F 29.6 in WNW 0.9 mph 2 mph 94% 0.02 in 0 W/m2
05:51 61.2 °F 59.4 °F 29.6 in Calm   1 mph 94% 0.02 in 0 W/m2
05:56 61.2 °F 59.4 °F 29.6 in NE 0.9 mph 1 mph 94% 0.02 in 0 W/m2
06:01 61.2 °F 59.4 °F 29.6 in WSW 0.9 mph 3 mph 94% 0.02 in 0 W/m2
06:06 61.2 °F 59.4 °F 29.6 in West 0.9 mph 6 mph 94% 0.02 in 0 W/m2
06:11 61.2 °F 59.4 °F 29.6 in NNW 0.9 mph 3 mph 94% 0.02 in 0 W/m2
06:16 61.2 °F 59.4 °F 29.6 in West 4 mph 6 mph 94% 0.02 in 0 W/m2
06:21 61.2 °F 59.4 °F 29.6 in WNW 2 mph 6 mph 94% 0.02 in 0 W/m2
06:26 61.2 °F 59.4 °F 29.6 in ENE 0.9 mph 2 mph 94% 0.02 in 0 W/m2
06:31 61.2 °F 59.4 °F 29.6 in NW 2 mph 5 mph 94% 0.02 in 5 W/m2
06:49 61.2 °F 59.4 °F 29.7 in Calm   5 mph 94% 0.01 in 5 W/m2
06:54 61.3 °F 59.5 °F 29.7 in NNE 0.9 mph 2 mph 94% 0.01 in 12 W/m2
06:59 61.3 °F 59.5 °F 29.7 in Calm   5 mph 94% 0.01 in 12 W/m2
07:04 61.3 °F 59.5 °F 29.7 in NNE 2 mph 4 mph 94% 0.04 in 9 W/m2
07:09 61.2 °F 59.4 °F 29.7 in NNW 2 mph 2 mph 94% 0.06 in 14 W/m2
07:14 61.2 °F 59.4 °F 29.7 in West 2 mph 6 mph 94% 0.06 in 12 W/m2
07:19 61.2 °F 59.4 °F 29.7 in NW 0.9 mph 3 mph 94% 0.06 in 18 W/m2
07:24 61.2 °F 59.4 °F 29.7 in NW 4 mph 5 mph 94% 0.06 in 26 W/m2
07:29 61.2 °F 59.4 °F 29.7 in NNW 2 mph 4 mph 94% 0.06 in 26 W/m2
07:34 61.2 °F 59.4 °F 29.7 in NNW 2.9 mph 4 mph 94% 0.06 in 39 W/m2
07:39 61.2 °F 59.4 °F 29.7 in SW 2 mph 3 mph 94% 0.06 in 25 W/m2
07:44 61.2 °F 59.4 °F 29.7 in NW 2 mph 8 mph 94% 0.06 in 70 W/m2
08:00 61.3 °F 59.5 °F 29.7 in West 2 mph 5 mph 94% 0.04 in 132 W/m2
08:05 61.5 °F 59.7 °F 29.7 in NNW 0.9 mph 1 mph 94% 0.01 in 116 W/m2
08:10 61.9 °F 60.1 °F 29.7 in NW 0.9 mph 6 mph 94% 0.01 in 186 W/m2
08:15 62.1 °F 60.1 °F 29.7 in North 0.9 mph 4 mph 93% 0 in 63 W/m2
08:20 62.1 °F 60.1 °F 29.7 in WSW 2 mph 6 mph 93% 0 in 76 W/m2
08:25 62.1 °F 60.1 °F 29.7 in WNW 6 mph 10 mph 93% 0 in 123 W/m2
08:30 62.1 °F 59.7 °F 29.7 in NW 2.9 mph 8 mph 92% 0 in 72 W/m2
08:35 62.1 °F 59.7 °F 29.7 in SSE 6.9 mph 10 mph 92% 0 in 86 W/m2
08:40 62.1 °F 59.7 °F 29.7 in NNW 4 mph 9 mph 92% 0 in 111 W/m2
08:45 62.1 °F 59.7 °F 29.7 in WSW 0.9 mph 6 mph 92% 0 in 104 W/m2
08:50 62.1 °F 59.7 °F 29.7 in North 0.9 mph 9 mph 92% 0 in 76 W/m2
08:55 62.1 °F 59.4 °F 29.7 in NW 4 mph 7 mph 91% 0 in 83 W/m2
09:01 62.1 °F 59.4 °F 29.7 in Calm   3 mph 91% 0 in 90 W/m2
09:06 62.1 °F 59.4 °F 29.7 in West 0.9 mph 5 mph 91% 0 in 100 W/m2
09:11 62.1 °F 59.4 °F 29.7 in NW 2 mph 3 mph 91% 0 in 192 W/m2
09:16 62.2 °F 59.9 °F 29.7 in WNW 2.9 mph 6 mph 92% 0 in 436 W/m2
09:21 62.8 °F 60.1 °F 29.7 in WNW 6.9 mph 9 mph 91% 0 in 466 W/m2
09:26 63.3 °F 60.3 °F 29.7 in WNW 4 mph 5 mph 90% 0 in 214 W/m2
09:31 63.5 °F 60.4 °F 29.7 in NW 0.9 mph 3 mph 90% 0 in 223 W/m2
09:36 63.7 °F 60.1 °F 29.7 in WNW 6 mph 6 mph 88% 0 in 137 W/m2
09:41 63.7 °F 60.1 °F 29.7 in WNW 4.9 mph 5 mph 88% 0 in 167 W/m2
09:46 63.5 °F 59.9 °F 29.7 in SE 8.1 mph 10 mph 88% 0 in 209 W/m2
09:51 63.5 °F 59.9 °F 29.7 in NNW 4 mph 7 mph 88% 0 in 229 W/m2
10:10 64 °F 60.1 °F 29.7 in NW 0.9 mph 5 mph 87% 0 in 696 W/m2
10:15 64.2 °F 59.9 °F 29.7 in WNW 4 mph 8 mph 86% 0 in 631 W/m2
10:20 64.6 °F 59.9 °F 29.7 in WSW 4.9 mph 7 mph 85% 0 in 192 W/m2
10:25 64.8 °F 59.9 °F 29.7 in NW 2 mph 4 mph 84% 0 in 691 W/m2
10:30 64.9 °F 59.7 °F 29.7 in West 0.9 mph 9 mph 83% 0 in 302 W/m2
10:35 64.9 °F 59.4 °F 29.7 in NW 4 mph 8 mph 82% 0 in 332 W/m2
10:40 64.9 °F 59.7 °F 29.7 in West 6.9 mph 10 mph 83% 0 in 301 W/m2
10:45 64.8 °F 59.2 °F 29.7 in NNW 2.9 mph 4 mph 82% 0 in 250 W/m2
10:50 64.6 °F 58.6 °F 29.7 in NNW 2.9 mph 5 mph 81% 0 in 255 W/m2
10:55 64.4 °F 58.8 °F 29.7 in North 2.9 mph 7 mph 82% 0 in 299 W/m2
11:11 64.8 °F 58.8 °F 29.7 in NNW 0.9 mph 9 mph 81% 0 in 306 W/m2
11:16 64.6 °F 59 °F 29.7 in West 2 mph 6 mph 82% 0 in 429 W/m2
11:21 64.6 °F 58.6 °F 29.7 in ESE 2 mph 8 mph 81% 0 in 452 W/m2
11:26 64.2 °F 58.6 °F 29.7 in NW 0.9 mph 11 mph 82% 0 in 371 W/m2
11:31 64 °F 58.8 °F 29.7 in North 6 mph 6 mph 83% 0 in 220 W/m2
11:36 63.5 °F 58.6 °F 29.7 in West 0.9 mph 9 mph 84% 0 in 149 W/m2
11:41 62.8 °F 58.5 °F 29.7 in NW 4.9 mph 12 mph 86% 0.01 in 251 W/m2
11:46 61.9 °F 58.3 °F 29.7 in NW 4 mph 9 mph 88% 0.01 in 512 W/m2
11:51 62.1 °F 58.8 °F 29.7 in WSW 2 mph 4 mph 89% 0.01 in 647 W/m2
11:56 62.2 °F 58.3 °F 29.7 in WNW 4.9 mph 8 mph 87% 0.01 in 461 W/m2
12:01 62.4 °F 58.1 °F 29.7 in NNW 0.9 mph 7 mph 86% 0.01 in 455 W/m2
12:06 62.8 °F 58.5 °F 29.7 in WNW 4 mph 9 mph 86% 0.01 in 489 W/m2
12:11 63 °F 58.6 °F 29.7 in Calm   9 mph 86% 0.01 in 281 W/m2
12:16 63.1 °F 58.8 °F 29.7 in NNW 2.9 mph 10 mph 86% 0.01 in 220 W/m2
12:21 63 °F 58.6 °F 29.7 in WNW 2 mph 6 mph 86% 0.01 in 213 W/m2
12:26 62.8 °F 58.5 °F 29.7 in ESE 2 mph 7 mph 86% 0.01 in 195 W/m2
12:31 62.8 °F 58.5 °F 29.7 in NNW 4 mph 9 mph 86% 0.01 in 253 W/m2
12:37 62.8 °F 58.8 °F 29.7 in NNW 0.9 mph 7 mph 87% 0.01 in 269 W/m2
12:42 63 °F 59 °F 29.7 in NNW 2 mph 9 mph 87% 0 in 366 W/m2
12:47 63.3 °F 59.4 °F 29.7 in WNW 2.9 mph 7 mph 87% 0 in 381 W/m2
12:52 63.9 °F 59.5 °F 29.7 in NNW 2 mph 5 mph 86% 0 in 265 W/m2
12:57 64 °F 59.2 °F 29.7 in West 4 mph 10 mph 84% 0 in 318 W/m2
13:02 64 °F 59.2 °F 29.7 in NNW 6 mph 6 mph 84% 0 in 362 W/m2
13:22 65.7 °F 59.7 °F 29.7 in NW 4 mph 6 mph 81% 0 in 1102 W/m2
13:27 66.2 °F 59.5 °F 29.7 in West 6 mph 10 mph 79% 0 in 1255 W/m2
13:32 66.7 °F 60.8 °F 29.7 in WNW 4 mph 10 mph 81% 0 in 939 W/m2
13:37 66.7 °F 60.1 °F 29.7 in West 6.9 mph 10 mph 79% 0 in 496 W/m2
13:42 66.6 °F 59.9 °F 29.7 in NW 4.9 mph 11 mph 79% 0 in 246 W/m2
13:47 66 °F 59.4 °F 29.7 in SW 4.9 mph 10 mph 79% 0 in 200 W/m2
14:05 64.9 °F 59 °F 29.7 in WSW 6.9 mph 12 mph 81% 0 in 385 W/m2
14:10 64.9 °F 59 °F 29.7 in WNW 2.9 mph 9 mph 81% 0 in 504 W/m2
14:15 65.5 °F 59.5 °F 29.7 in NW 8.1 mph 10 mph 81% 0 in 376 W/m2
14:20 65.8 °F 59.5 °F 29.7 in West 0.9 mph 11 mph 80% 0 in 1002 W/m2
14:25 66.7 °F 59.7 °F 29.7 in WNW 2.9 mph 15 mph 78% 0 in 292 W/m2
14:30 66.7 °F 59.4 °F 29.7 in WNW 4 mph 10 mph 77% 0 in 306 W/m2
14:35 66.7 °F 59.7 °F 29.7 in SW 6 mph 15 mph 78% 0 in 399 W/m2
14:40 66.9 °F 59.5 °F 29.7 in NW 4.9 mph 9 mph 77% 0 in 288 W/m2
14:45 66.7 °F 59.4 °F 29.7 in West 2.9 mph 10 mph 77% 0 in 323 W/m2
14:50 66.9 °F 59.9 °F 29.7 in NNW 6 mph 6 mph 78% 0 in 339 W/m2
14:55 67.5 °F 60.1 °F 29.7 in NNE 6 mph 6 mph 77% 0 in 912 W/m2
15:00 68.2 °F 60.6 °F 29.7 in North 2 mph 7 mph 77% 0 in 1046 W/m2
15:05 68.4 °F 59.4 °F 29.7 in West 2.9 mph 9 mph 73% 0 in 267 W/m2
15:10 68 °F 58.6 °F 29.7 in WNW 4 mph 6 mph 72% 0 in 137 W/m2
15:15 67.6 °F 58.6 °F 29.7 in NE 0.9 mph 7 mph 73% 0 in 165 W/m2
15:20 67.3 °F 58.6 °F 29.7 in NW 4 mph 7 mph 74% 0 in 86 W/m2
15:25 66.7 °F 59 °F 29.7 in West 2.9 mph 7 mph 76% 0 in 91 W/m2
15:30 66.2 °F 59.2 °F 29.7 in NW 4.9 mph 6 mph 78% 0 in 364 W/m2
15:35 66 °F 59.4 °F 29.7 in Calm   7 mph 79% 0 in 283 W/m2
15:40 66 °F 59.7 °F 29.7 in WNW 10.1 mph 10 mph 80% 0 in 388 W/m2
15:45 66.4 °F 59.7 °F 29.7 in NW 4 mph 4 mph 79% 0 in 367 W/m2
15:50 66.7 °F 59.7 °F 29.7 in NW 2 mph 5 mph 78% 0 in 403 W/m2
15:55 67.3 °F 58.6 °F 29.7 in WSW 4.9 mph 8 mph 74% 0 in 404 W/m2
16:01 67.6 °F 59.4 °F 29.7 in NNW 2.9 mph 4 mph 75% 0 in 424 W/m2
16:06 67.6 °F 58.3 °F 29.7 in NNW 2 mph 15 mph 72% 0 in 385 W/m2
16:11 67.3 °F 57.9 °F 29.7 in WNW 4 mph 11 mph 72% 0 in 246 W/m2
16:28 67.3 °F 58.6 °F 29.7 in NW 2 mph 5 mph 74% 0 in 272 W/m2
16:33 67.3 °F 58.6 °F 29.7 in NNW 2.9 mph 8 mph 74% 0 in 197 W/m2
16:38 67.3 °F 58.6 °F 29.7 in NW 2.9 mph 7 mph 74% 0 in 183 W/m2
16:43 67.3 °F 57.9 °F 29.7 in WNW 2 mph 9 mph 72% 0 in 185 W/m2
16:48 66.9 °F 58.3 °F 29.7 in West 6 mph 9 mph 74% 0 in 183 W/m2
16:53 66.9 °F 57.6 °F 29.7 in WNW 6.9 mph 9 mph 72% 0 in 172 W/m2
16:58 66.7 °F 57.4 °F 29.7 in North 10.1 mph 11 mph 72% 0 in 146 W/m2
17:03 66.7 °F 57.4 °F 29.7 in WNW 4 mph 5 mph 72% 0 in 183 W/m2
17:08 66.9 °F 57.6 °F 29.7 in WNW 2.9 mph 6 mph 72% 0 in 209 W/m2
17:13 66.9 °F 57.6 °F 29.7 in West 6.9 mph 9 mph 72% 0 in 260 W/m2
17:18 67.1 °F 57.7 °F 29.7 in NW 2 mph 6 mph 72% 0 in 241 W/m2
17:23 67.3 °F 57.9 °F 29.7 in North 2 mph 9 mph 72% 0 in 243 W/m2
17:39 67.6 °F 58.6 °F 29.7 in Calm   2 mph 73% 0 in 220 W/m2
17:44 67.8 °F 58.8 °F 29.7 in NW 2 mph 2 mph 73% 0 in 127 W/m2
17:49 67.6 °F 58.3 °F 29.7 in NNE 4.9 mph 5 mph 72% 0 in 86 W/m2
17:54 67.5 °F 58.1 °F 29.7 in West 0.9 mph 6 mph 72% 0 in 137 W/m2
17:59 67.3 °F 57.9 °F 29.7 in Calm   9 mph 72% 0 in 209 W/m2
18:04 67.3 °F 57.9 °F 29.7 in NW 0.9 mph 4 mph 72% 0 in 195 W/m2
18:09 67.3 °F 57.9 °F 29.7 in NW 4 mph 5 mph 72% 0 in 185 W/m2
18:14 67.5 °F 58.1 °F 29.7 in NNW 2.9 mph 8 mph 72% 0 in 167 W/m2
18:19 67.5 °F 57.7 °F 29.7 in WSW 4 mph 7 mph 71% 0 in 144 W/m2
18:25 67.3 °F 57.9 °F 29.7 in WNW 4.9 mph 9 mph 72% 0 in 139 W/m2
18:30 67.3 °F 57.9 °F 29.7 in NW 0.9 mph 4 mph 72% 0 in 105 W/m2
18:50 67.5 °F 58.8 °F 29.7 in Calm   7 mph 74% 0 in 141 W/m2
18:55 67.5 °F 58.5 °F 29.7 in SW 0.9 mph 3 mph 73% 0 in 149 W/m2
19:00 67.5 °F 58.8 °F 29.7 in SW 2 mph 7 mph 74% 0 in 118 W/m2
19:05 67.5 °F 58.8 °F 29.7 in Calm   1 mph 74% 0 in 111 W/m2
19:10 67.5 °F 59.2 °F 29.7 in Calm   2 mph 75% 0 in 141 W/m2
19:15 67.5 °F 58.5 °F 29.7 in NNW 2 mph 4 mph 73% 0 in 134 W/m2
19:20 67.5 °F 60.1 °F 29.7 in East 0.9 mph 2 mph 77% 0 in 109 W/m2
19:25 67.3 °F 58.3 °F 29.7 in Calm   3 mph 73% 0 in 91 W/m2
19:30 67.3 °F 58.6 °F 29.7 in Calm   3 mph 74% 0 in 83 W/m2
19:35 67.3 °F 59.5 °F 29.7 in Calm   1 mph 76% 0 in 97 W/m2
19:40 66.9 °F 58.8 °F 29.7 in SSW 0.9 mph 3 mph 75% 0 in 100 W/m2
19:45 66.7 °F 59 °F 29.7 in NW 2 mph 4 mph 76% 0 in 91 W/m2
19:50 66.7 °F 59.7 °F 29.7 in Calm   1 mph 78% 0 in 88 W/m2
19:55 66.7 °F 60.1 °F 29.7 in Calm   4 mph 79% 0 in 74 W/m2
20:00 66.6 °F 59.9 °F 29.7 in Calm   1 mph 79% 0 in 95 W/m2
20:05 66.2 °F 59.5 °F 29.7 in Calm   2 mph 79% 0 in 58 W/m2
20:10 66 °F 60.1 °F 29.7 in ENE 0.9 mph 1 mph 81% 0 in 47 W/m2
20:15 65.8 °F 59.9 °F 29.7 in Calm   2 mph 81% 0 in 44 W/m2
20:20 65.5 °F 59.2 °F 29.7 in ENE 0.9 mph 1 mph 80% 0 in 39 W/m2
20:25 65.5 °F 60.3 °F 29.7 in ENE 0.9 mph 2 mph 83% 0 in 32 W/m2
20:30 64.9 °F 59.9 °F 29.7 in ENE 0.9 mph 2 mph 84% 0 in 23 W/m2
20:35 64.6 °F 59.7 °F 29.7 in Calm   1 mph 84% 0 in 21 W/m2
20:40 64.2 °F 59.5 °F 29.7 in Calm   2 mph 85% 0 in 23 W/m2
20:45 64 °F 59.4 °F 29.7 in Calm   1 mph 85% 0 in 16 W/m2
20:50 63.7 °F 59 °F 29.7 in ENE 0.9 mph 2 mph 85% 0 in 11 W/m2
20:55 63.1 °F 58.8 °F 29.7 in Calm     86% 0 in 7 W/m2
21:00 63 °F 59 °F 29.7 in Calm   2 mph 87% 0 in 5 W/m2
21:05 62.4 °F 58.5 °F 29.7 in Calm     87% 0 in 0 W/m2
21:10 62.1 °F 58.1 °F 29.7 in Calm     87% 0 in 0 W/m2
21:15 61.9 °F 58.3 °F 29.7 in Calm     88% 0 in 0 W/m2
21:20 61.5 °F 57.9 °F 29.7 in Calm     88% 0 in 0 W/m2
21:25 61.2 °F 57.9 °F 29.7 in Calm   1 mph 89% 0 in 0 W/m2
21:30 61 °F 57.7 °F 29.7 in Calm     89% 0 in 0 W/m2
21:36 60.6 °F 57.4 °F 29.7 in Calm   1 mph 89% 0 in 0 W/m2
21:41 60.4 °F 57.6 °F 29.7 in Calm   1 mph 90% 0 in 0 W/m2
21:46 60.4 °F 57.6 °F 29.7 in SE 0.9 mph 2 mph 90% 0 in 0 W/m2
21:51 60.3 °F 57.4 °F 29.7 in Calm     90% 0 in 0 W/m2
21:56 60.3 °F 57.6 °F 29.7 in Calm   2 mph 91% 0 in 0 W/m2
22:01 60.1 °F 57.4 °F 29.7 in Calm   2 mph 91% 0 in 0 W/m2
22:06 60.1 °F 57.4 °F 29.7 in Calm   2 mph 91% 0 in 0 W/m2
22:11 59.9 °F 57.2 °F 29.7 in Calm     91% 0 in 0 W/m2
22:16 59.7 °F 57 °F 29.7 in Calm   1 mph 91% 0 in 0 W/m2
22:21 59.5 °F 56.8 °F 29.7 in Calm     91% 0 in 0 W/m2
22:26 59.5 °F 56.8 °F 29.7 in Calm     91% 0 in 0 W/m2
22:31 59.4 °F 56.7 °F 29.7 in Calm     91% 0 in 0 W/m2
22:36 59.2 °F 56.8 °F 29.7 in Calm     92% 0 in 0 W/m2
22:41 59.2 °F 56.8 °F 29.7 in Calm     92% 0 in 0 W/m2
22:46 59 °F 56.7 °F 29.7 in Calm     92% 0 in 0 W/m2
22:51 58.8 °F 56.5 °F 29.7 in Calm     92% 0 in 0 W/m2
22:56 58.8 °F 56.5 °F 29.7 in Calm     92% 0 in 0 W/m2
23:01 58.8 °F 56.8 °F 29.7 in Calm     93% 0 in 0 W/m2
23:06 58.8 °F 56.8 °F 29.7 in Calm     93% 0 in 0 W/m2
23:11 58.8 °F 56.8 °F 29.7 in Calm     93% 0 in 0 W/m2
23:16 59 °F 57 °F 29.7 in Calm   1 mph 93% 0 in 0 W/m2
23:21 59.2 °F 57.2 °F 29.7 in Calm     93% 0 in 0 W/m2
23:26 59.2 °F 57.2 °F 29.7 in Calm     93% 0 in 0 W/m2
23:31 59.4 °F 57.6 °F 29.7 in Calm     94% 0 in 0 W/m2
23:36 59.4 °F 57.4 °F 29.7 in Calm   1 mph 93% 0 in 0 W/m2
23:41 59.5 °F 57.6 °F 29.7 in Calm     93% 0 in 0 W/m2
23:59 59.9 °F 57.9 °F 29.7 in Calm   2 mph 93% 0 in 0 W/m2
Juneau County Weather
Compliments of Weather Underground - 2 mb